sensor_id;sensor_type;location;lat;lon;timestamp;temperature;humidity
8172;DHT22;4127;47.908;10.850;2022-07-06T00:01:52;22.50;62.20
8172;DHT22;4127;47.908;10.850;2022-07-06T00:04:19;22.50;62.30
8172;DHT22;4127;47.908;10.850;2022-07-06T00:06:46;22.40;62.70
8172;DHT22;4127;47.908;10.850;2022-07-06T00:09:13;22.40;62.70
8172;DHT22;4127;47.908;10.850;2022-07-06T00:11:40;22.40;62.70
8172;DHT22;4127;47.908;10.850;2022-07-06T00:14:07;22.50;62.60
8172;DHT22;4127;47.908;10.850;2022-07-06T00:16:34;22.50;62.50
8172;DHT22;4127;47.908;10.850;2022-07-06T00:19:01;22.50;62.50
8172;DHT22;4127;47.908;10.850;2022-07-06T00:21:27;22.50;62.60
8172;DHT22;4127;47.908;10.850;2022-07-06T00:23:54;22.40;62.70
8172;DHT22;4127;47.908;10.850;2022-07-06T00:26:21;22.40;62.70
8172;DHT22;4127;47.908;10.850;2022-07-06T00:28:48;22.40;62.80
8172;DHT22;4127;47.908;10.850;2022-07-06T00:31:15;22.40;62.80
8172;DHT22;4127;47.908;10.850;2022-07-06T00:33:41;22.40;62.90
8172;DHT22;4127;47.908;10.850;2022-07-06T00:36:08;22.30;62.80
8172;DHT22;4127;47.908;10.850;2022-07-06T00:38:35;22.30;62.90
8172;DHT22;4127;47.908;10.850;2022-07-06T00:41:02;22.30;62.80
8172;DHT22;4127;47.908;10.850;2022-07-06T00:43:46;22.30;62.80
8172;DHT22;4127;47.908;10.850;2022-07-06T00:46:13;22.30;62.90
8172;DHT22;4127;47.908;10.850;2022-07-06T00:48:40;22.30;62.80
8172;DHT22;4127;47.908;10.850;2022-07-06T00:51:07;22.40;62.60
8172;DHT22;4127;47.908;10.850;2022-07-06T00:53:34;22.60;62.30
8172;DHT22;4127;47.908;10.850;2022-07-06T00:56:01;22.70;62.10
8172;DHT22;4127;47.908;10.850;2022-07-06T00:58:28;22.80;61.70
8172;DHT22;4127;47.908;10.850;2022-07-06T01:00:55;22.90;61.40
8172;DHT22;4127;47.908;10.850;2022-07-06T01:03:22;23.00;61.10
8172;DHT22;4127;47.908;10.850;2022-07-06T01:05:50;23.10;60.90
8172;DHT22;4127;47.908;10.850;2022-07-06T01:08:17;23.10;60.70
8172;DHT22;4127;47.908;10.850;2022-07-06T01:10:44;23.10;60.70
8172;DHT22;4127;47.908;10.850;2022-07-06T01:13:11;23.20;60.70
8172;DHT22;4127;47.908;10.850;2022-07-06T01:15:38;23.20;60.60
8172;DHT22;4127;47.908;10.850;2022-07-06T01:18:05;23.20;61.20
8172;DHT22;4127;47.908;10.850;2022-07-06T01:20:31;23.20;60.30
8172;DHT22;4127;47.908;10.850;2022-07-06T01:22:59;23.10;60.50
8172;DHT22;4127;47.908;10.850;2022-07-06T01:25:26;23.10;60.50
8172;DHT22;4127;47.908;10.850;2022-07-06T01:27:53;23.10;60.60
8172;DHT22;4127;47.908;10.850;2022-07-06T01:30:20;23.20;60.50
8172;DHT22;4127;47.908;10.850;2022-07-06T01:32:47;23.10;60.40
8172;DHT22;4127;47.908;10.850;2022-07-06T01:35:15;23.00;60.30
8172;DHT22;4127;47.908;10.850;2022-07-06T01:37:42;22.90;60.70
8172;DHT22;4127;47.908;10.850;2022-07-06T01:40:10;22.70;60.70
8172;DHT22;4127;47.908;10.850;2022-07-06T01:42:38;22.60;60.90
8172;DHT22;4127;47.908;10.850;2022-07-06T01:45:06;22.50;61.20
8172;DHT22;4127;47.908;10.850;2022-07-06T01:47:33;22.50;61.60
8172;DHT22;4127;47.908;10.850;2022-07-06T01:50:03;22.50;61.40
8172;DHT22;4127;47.908;10.850;2022-07-06T01:52:30;22.50;61.40
8172;DHT22;4127;47.908;10.850;2022-07-06T01:54:57;22.50;61.60
8172;DHT22;4127;47.908;10.850;2022-07-06T01:57:24;22.40;61.60
8172;DHT22;4127;47.908;10.850;2022-07-06T01:59:50;22.30;62.00
8172;DHT22;4127;47.908;10.850;2022-07-06T02:02:17;22.40;62.10
8172;DHT22;4127;47.908;10.850;2022-07-06T02:04:45;22.40;61.80
8172;DHT22;4127;47.908;10.850;2022-07-06T02:07:11;22.30;61.90
8172;DHT22;4127;47.908;10.850;2022-07-06T02:09:38;22.20;62.00
8172;DHT22;4127;47.908;10.850;2022-07-06T02:12:05;22.20;62.10
8172;DHT22;4127;47.908;10.850;2022-07-06T02:14:32;22.20;62.30
8172;DHT22;4127;47.908;10.850;2022-07-06T02:16:59;22.20;62.30
8172;DHT22;4127;47.908;10.850;2022-07-06T02:19:26;22.10;62.30
8172;DHT22;4127;47.908;10.850;2022-07-06T02:21:53;22.10;62.50
8172;DHT22;4127;47.908;10.850;2022-07-06T02:24:19;22.00;62.60
8172;DHT22;4127;47.908;10.850;2022-07-06T02:26:46;22.00;62.50
8172;DHT22;4127;47.908;10.850;2022-07-06T02:29:13;22.00;62.80
8172;DHT22;4127;47.908;10.850;2022-07-06T02:31:40;22.00;62.70
8172;DHT22;4127;47.908;10.850;2022-07-06T02:34:06;21.90;62.60
8172;DHT22;4127;47.908;10.850;2022-07-06T02:36:33;21.90;62.80
8172;DHT22;4127;47.908;10.850;2022-07-06T02:39:00;21.90;63.10
8172;DHT22;4127;47.908;10.850;2022-07-06T02:41:27;21.90;62.80
8172;DHT22;4127;47.908;10.850;2022-07-06T02:43:53;21.90;62.50
8172;DHT22;4127;47.908;10.850;2022-07-06T02:46:20;21.90;62.80
8172;DHT22;4127;47.908;10.850;2022-07-06T02:48:47;21.90;62.70
8172;DHT22;4127;47.908;10.850;2022-07-06T02:51:14;21.90;62.70
8172;DHT22;4127;47.908;10.850;2022-07-06T02:53:41;21.90;62.80
8172;DHT22;4127;47.908;10.850;2022-07-06T02:56:07;21.90;62.60
8172;DHT22;4127;47.908;10.850;2022-07-06T02:58:34;21.90;62.60
8172;DHT22;4127;47.908;10.850;2022-07-06T03:01:01;21.90;62.30
8172;DHT22;4127;47.908;10.850;2022-07-06T03:03:28;21.80;62.50
8172;DHT22;4127;47.908;10.850;2022-07-06T03:05:55;21.70;62.70
8172;DHT22;4127;47.908;10.850;2022-07-06T03:08:22;21.70;63.00
8172;DHT22;4127;47.908;10.850;2022-07-06T03:10:49;21.60;62.90
8172;DHT22;4127;47.908;10.850;2022-07-06T03:13:16;21.60;62.90
8172;DHT22;4127;47.908;10.850;2022-07-06T03:15:42;21.50;63.00
8172;DHT22;4127;47.908;10.850;2022-07-06T03:18:09;21.50;63.40
8172;DHT22;4127;47.908;10.850;2022-07-06T03:20:36;21.50;63.30
8172;DHT22;4127;47.908;10.850;2022-07-06T03:23:03;21.60;63.30
8172;DHT22;4127;47.908;10.850;2022-07-06T03:25:30;21.50;63.20
8172;DHT22;4127;47.908;10.850;2022-07-06T03:27:56;21.50;63.30
8172;DHT22;4127;47.908;10.850;2022-07-06T03:30:23;21.50;63.30
8172;DHT22;4127;47.908;10.850;2022-07-06T03:32:50;21.50;63.40
8172;DHT22;4127;47.908;10.850;2022-07-06T03:35:17;21.50;63.30
8172;DHT22;4127;47.908;10.850;2022-07-06T03:37:43;21.50;63.30
8172;DHT22;4127;47.908;10.850;2022-07-06T03:40:11;21.50;63.40
8172;DHT22;4127;47.908;10.850;2022-07-06T03:42:38;21.50;63.40
8172;DHT22;4127;47.908;10.850;2022-07-06T03:45:06;21.50;63.50
8172;DHT22;4127;47.908;10.850;2022-07-06T03:47:32;21.40;63.30
8172;DHT22;4127;47.908;10.850;2022-07-06T03:49:59;21.40;63.60
8172;DHT22;4127;47.908;10.850;2022-07-06T03:52:26;21.50;63.70
8172;DHT22;4127;47.908;10.850;2022-07-06T03:54:53;21.60;63.60
8172;DHT22;4127;47.908;10.850;2022-07-06T03:57:19;21.70;63.30
8172;DHT22;4127;47.908;10.850;2022-07-06T03:59:48;21.60;63.70
8172;DHT22;4127;47.908;10.850;2022-07-06T04:02:14;21.60;63.10
8172;DHT22;4127;47.908;10.850;2022-07-06T04:04:41;21.60;63.60
8172;DHT22;4127;47.908;10.850;2022-07-06T04:07:08;21.60;63.40
8172;DHT22;4127;47.908;10.850;2022-07-06T04:09:35;21.60;63.30
8172;DHT22;4127;47.908;10.850;2022-07-06T04:12:02;21.60;63.40
8172;DHT22;4127;47.908;10.850;2022-07-06T04:14:28;21.60;63.30
8172;DHT22;4127;47.908;10.850;2022-07-06T04:16:55;21.60;63.50
8172;DHT22;4127;47.908;10.850;2022-07-06T04:19:22;21.60;63.30
8172;DHT22;4127;47.908;10.850;2022-07-06T04:21:49;21.60;63.40
8172;DHT22;4127;47.908;10.850;2022-07-06T04:24:16;21.60;63.30
8172;DHT22;4127;47.908;10.850;2022-07-06T04:26:42;21.60;63.40
8172;DHT22;4127;47.908;10.850;2022-07-06T04:29:09;21.60;63.70
8172;DHT22;4127;47.908;10.850;2022-07-06T04:31:36;21.70;63.60
8172;DHT22;4127;47.908;10.850;2022-07-06T04:34:02;21.70;63.50
8172;DHT22;4127;47.908;10.850;2022-07-06T04:36:29;21.70;63.60
8172;DHT22;4127;47.908;10.850;2022-07-06T04:38:56;21.70;63.70
8172;DHT22;4127;47.908;10.850;2022-07-06T04:41:23;21.70;63.70
8172;DHT22;4127;47.908;10.850;2022-07-06T04:43:50;21.80;64.00
8172;DHT22;4127;47.908;10.850;2022-07-06T04:46:16;21.80;63.60
8172;DHT22;4127;47.908;10.850;2022-07-06T04:48:43;21.90;63.60
8172;DHT22;4127;47.908;10.850;2022-07-06T04:51:10;21.90;63.50
8172;DHT22;4127;47.908;10.850;2022-07-06T04:53:37;21.90;63.60
8172;DHT22;4127;47.908;10.850;2022-07-06T04:56:04;21.90;63.80
8172;DHT22;4127;47.908;10.850;2022-07-06T04:58:30;21.90;63.60
8172;DHT22;4127;47.908;10.850;2022-07-06T05:00:57;21.90;63.60
8172;DHT22;4127;47.908;10.850;2022-07-06T05:03:24;22.00;63.80
8172;DHT22;4127;47.908;10.850;2022-07-06T05:05:51;21.90;63.70
8172;DHT22;4127;47.908;10.850;2022-07-06T05:08:20;22.00;63.80
8172;DHT22;4127;47.908;10.850;2022-07-06T05:10:48;22.00;63.80
8172;DHT22;4127;47.908;10.850;2022-07-06T05:13:15;22.00;63.70
8172;DHT22;4127;47.908;10.850;2022-07-06T05:15:42;22.00;63.60
8172;DHT22;4127;47.908;10.850;2022-07-06T05:18:08;22.00;63.80
8172;DHT22;4127;47.908;10.850;2022-07-06T05:20:35;22.10;63.70
8172;DHT22;4127;47.908;10.850;2022-07-06T05:23:02;22.10;63.90
8172;DHT22;4127;47.908;10.850;2022-07-06T05:25:29;22.10;63.70
8172;DHT22;4127;47.908;10.850;2022-07-06T05:27:56;22.20;63.70
8172;DHT22;4127;47.908;10.850;2022-07-06T05:30:23;22.20;63.40
8172;DHT22;4127;47.908;10.850;2022-07-06T05:32:50;22.20;63.40
8172;DHT22;4127;47.908;10.850;2022-07-06T05:35:17;22.20;63.10
8172;DHT22;4127;47.908;10.850;2022-07-06T05:38:03;22.30;63.00
8172;DHT22;4127;47.908;10.850;2022-07-06T05:40:31;22.30;62.80
8172;DHT22;4127;47.908;10.850;2022-07-06T05:42:58;22.30;62.70
8172;DHT22;4127;47.908;10.850;2022-07-06T05:45:24;22.30;62.80
8172;DHT22;4127;47.908;10.850;2022-07-06T05:47:51;22.30;62.70
8172;DHT22;4127;47.908;10.850;2022-07-06T05:50:37;22.30;62.40
8172;DHT22;4127;47.908;10.850;2022-07-06T05:53:05;22.30;63.20
8172;DHT22;4127;47.908;10.850;2022-07-06T05:55:43;22.30;62.60
8172;DHT22;4127;47.908;10.850;2022-07-06T05:58:09;22.40;61.80
8172;DHT22;4127;47.908;10.850;2022-07-06T06:00:36;22.30;62.00
8172;DHT22;4127;47.908;10.850;2022-07-06T06:03:03;22.20;62.40
8172;DHT22;4127;47.908;10.850;2022-07-06T06:05:30;22.30;62.40
8172;DHT22;4127;47.908;10.850;2022-07-06T06:07:56;22.40;62.40
8172;DHT22;4127;47.908;10.850;2022-07-06T06:10:24;22.30;61.40
8172;DHT22;4127;47.908;10.850;2022-07-06T06:12:51;22.10;62.20
8172;DHT22;4127;47.908;10.850;2022-07-06T06:15:18;22.00;62.80
8172;DHT22;4127;47.908;10.850;2022-07-06T06:17:45;22.10;62.80
8172;DHT22;4127;47.908;10.850;2022-07-06T06:20:12;22.00;62.10
8172;DHT22;4127;47.908;10.850;2022-07-06T06:22:56;22.00;62.60
8172;DHT22;4127;47.908;10.850;2022-07-06T06:25:36;21.80;61.70
8172;DHT22;4127;47.908;10.850;2022-07-06T06:28:05;21.60;61.80
8172;DHT22;4127;47.908;10.850;2022-07-06T06:30:32;21.60;62.00
8172;DHT22;4127;47.908;10.850;2022-07-06T06:33:06;21.70;61.90
8172;DHT22;4127;47.908;10.850;2022-07-06T06:35:33;21.70;62.10
8172;DHT22;4127;47.908;10.850;2022-07-06T06:38:00;21.70;62.00
8172;DHT22;4127;47.908;10.850;2022-07-06T06:40:26;21.80;62.10
8172;DHT22;4127;47.908;10.850;2022-07-06T06:42:53;21.90;62.10
8172;DHT22;4127;47.908;10.850;2022-07-06T06:45:20;21.80;61.70
8172;DHT22;4127;47.908;10.850;2022-07-06T06:47:47;21.80;61.20
8172;DHT22;4127;47.908;10.850;2022-07-06T06:50:13;21.70;61.10
8172;DHT22;4127;47.908;10.850;2022-07-06T06:52:40;21.70;62.00
8172;DHT22;4127;47.908;10.850;2022-07-06T06:55:08;20.70;61.20
8172;DHT22;4127;47.908;10.850;2022-07-06T06:57:35;21.70;61.20
8172;DHT22;4127;47.908;10.850;2022-07-06T07:00:04;21.80;61.00
8172;DHT22;4127;47.908;10.850;2022-07-06T07:02:31;21.80;61.20
8172;DHT22;4127;47.908;10.850;2022-07-06T07:04:58;21.90;60.10
8172;DHT22;4127;47.908;10.850;2022-07-06T07:07:25;21.80;60.90
8172;DHT22;4127;47.908;10.850;2022-07-06T07:09:51;21.80;59.90
8172;DHT22;4127;47.908;10.850;2022-07-06T07:12:18;21.80;60.40
8172;DHT22;4127;47.908;10.850;2022-07-06T07:14:45;21.80;60.60
8172;DHT22;4127;47.908;10.850;2022-07-06T07:17:12;21.90;60.50
8172;DHT22;4127;47.908;10.850;2022-07-06T07:19:40;22.00;61.00
8172;DHT22;4127;47.908;10.850;2022-07-06T07:22:07;22.00;60.30
8172;DHT22;4127;47.908;10.850;2022-07-06T07:24:34;22.00;60.70
8172;DHT22;4127;47.908;10.850;2022-07-06T07:27:01;22.00;60.50
8172;DHT22;4127;47.908;10.850;2022-07-06T07:29:28;22.00;60.80
8172;DHT22;4127;47.908;10.850;2022-07-06T07:31:54;22.00;61.00
8172;DHT22;4127;47.908;10.850;2022-07-06T07:34:21;22.10;61.10
8172;DHT22;4127;47.908;10.850;2022-07-06T07:36:48;22.20;61.00
8172;DHT22;4127;47.908;10.850;2022-07-06T07:39:15;22.20;60.40
8172;DHT22;4127;47.908;10.850;2022-07-06T07:41:42;22.10;60.20
8172;DHT22;4127;47.908;10.850;2022-07-06T07:44:08;22.10;60.80
8172;DHT22;4127;47.908;10.850;2022-07-06T07:46:35;22.10;61.20
8172;DHT22;4127;47.908;10.850;2022-07-06T07:49:02;22.10;60.70
8172;DHT22;4127;47.908;10.850;2022-07-06T07:51:29;22.20;60.80
8172;DHT22;4127;47.908;10.850;2022-07-06T07:53:56;22.20;60.80
8172;DHT22;4127;47.908;10.850;2022-07-06T07:56:22;22.30;60.30
8172;DHT22;4127;47.908;10.850;2022-07-06T07:58:49;22.30;59.20
8172;DHT22;4127;47.908;10.850;2022-07-06T08:01:16;22.30;59.70
8172;DHT22;4127;47.908;10.850;2022-07-06T08:03:43;22.30;59.60
8172;DHT22;4127;47.908;10.850;2022-07-06T08:06:10;22.30;59.70
8172;DHT22;4127;47.908;10.850;2022-07-06T08:08:37;22.30;59.90
8172;DHT22;4127;47.908;10.850;2022-07-06T08:11:03;22.30;59.70
8172;DHT22;4127;47.908;10.850;2022-07-06T08:13:46;22.30;60.10
8172;DHT22;4127;47.908;10.850;2022-07-06T08:16:13;22.40;60.20
8172;DHT22;4127;47.908;10.850;2022-07-06T08:18:40;22.50;60.00
8172;DHT22;4127;47.908;10.850;2022-07-06T08:21:07;22.50;60.10
8172;DHT22;4127;47.908;10.850;2022-07-06T08:23:55;22.50;59.80
8172;DHT22;4127;47.908;10.850;2022-07-06T08:26:22;22.60;60.00
8172;DHT22;4127;47.908;10.850;2022-07-06T08:28:49;22.70;59.50
8172;DHT22;4127;47.908;10.850;2022-07-06T08:31:17;22.70;59.90
8172;DHT22;4127;47.908;10.850;2022-07-06T08:34:04;22.70;59.90
8172;DHT22;4127;47.908;10.850;2022-07-06T08:36:31;22.80;59.80
8172;DHT22;4127;47.908;10.850;2022-07-06T08:38:58;22.80;59.70
8172;DHT22;4127;47.908;10.850;2022-07-06T08:41:26;22.80;59.60
8172;DHT22;4127;47.908;10.850;2022-07-06T08:43:55;22.90;59.60
8172;DHT22;4127;47.908;10.850;2022-07-06T08:46:22;22.90;59.60
8172;DHT22;4127;47.908;10.850;2022-07-06T08:48:49;22.90;59.60
8172;DHT22;4127;47.908;10.850;2022-07-06T08:51:17;22.90;59.70
8172;DHT22;4127;47.908;10.850;2022-07-06T08:53:44;23.00;59.70
8172;DHT22;4127;47.908;10.850;2022-07-06T08:56:12;23.00;59.40
8172;DHT22;4127;47.908;10.850;2022-07-06T08:58:39;23.00;59.50
8172;DHT22;4127;47.908;10.850;2022-07-06T09:01:10;23.00;58.70
8172;DHT22;4127;47.908;10.850;2022-07-06T09:03:40;23.00;58.70
8172;DHT22;4127;47.908;10.850;2022-07-06T09:06:08;22.90;58.60
8172;DHT22;4127;47.908;10.850;2022-07-06T09:08:35;22.90;59.30
8172;DHT22;4127;47.908;10.850;2022-07-06T09:11:06;22.90;59.30
8172;DHT22;4127;47.908;10.850;2022-07-06T09:13:33;23.00;58.90
8172;DHT22;4127;47.908;10.850;2022-07-06T09:16:13;23.00;59.40
8172;DHT22;4127;47.908;10.850;2022-07-06T09:19:00;23.00;59.30
8172;DHT22;4127;47.908;10.850;2022-07-06T09:21:29;23.00;58.90
8172;DHT22;4127;47.908;10.850;2022-07-06T09:24:01;23.10;59.40
8172;DHT22;4127;47.908;10.850;2022-07-06T09:26:31;23.10;59.20
8172;DHT22;4127;47.908;10.850;2022-07-06T09:28:58;23.10;59.30
8172;DHT22;4127;47.908;10.850;2022-07-06T09:31:28;23.10;58.70
8172;DHT22;4127;47.908;10.850;2022-07-06T09:34:06;23.10;58.80
8172;DHT22;4127;47.908;10.850;2022-07-06T09:36:43;23.10;59.10
8172;DHT22;4127;47.908;10.850;2022-07-06T09:41:50;23.20;59.10
8172;DHT22;4127;47.908;10.850;2022-07-06T09:44:21;23.20;58.70
8172;DHT22;4127;47.908;10.850;2022-07-06T09:46:49;23.20;58.10
8172;DHT22;4127;47.908;10.850;2022-07-06T09:49:20;23.20;58.70
8172;DHT22;4127;47.908;10.850;2022-07-06T09:51:48;23.20;58.50
8172;DHT22;4127;47.908;10.850;2022-07-06T09:54:16;23.20;59.00
8172;DHT22;4127;47.908;10.850;2022-07-06T09:56:45;23.30;58.90
8172;DHT22;4127;47.908;10.850;2022-07-06T09:59:16;23.30;58.30
8172;DHT22;4127;47.908;10.850;2022-07-06T10:01:43;23.30;58.70
8172;DHT22;4127;47.908;10.850;2022-07-06T10:04:12;23.20;57.90
8172;DHT22;4127;47.908;10.850;2022-07-06T10:06:40;23.20;58.40
8172;DHT22;4127;47.908;10.850;2022-07-06T10:09:08;23.20;58.30
8172;DHT22;4127;47.908;10.850;2022-07-06T10:12:00;23.10;58.60
8172;DHT22;4127;47.908;10.850;2022-07-06T10:14:32;23.10;58.50
8172;DHT22;4127;47.908;10.850;2022-07-06T10:17:01;23.20;58.90
8172;DHT22;4127;47.908;10.850;2022-07-06T10:19:30;23.20;57.90
8172;DHT22;4127;47.908;10.850;2022-07-06T10:22:02;23.20;57.10
8172;DHT22;4127;47.908;10.850;2022-07-06T10:24:30;23.20;57.80
8172;DHT22;4127;47.908;10.850;2022-07-06T10:27:01;23.20;58.50
8172;DHT22;4127;47.908;10.850;2022-07-06T10:29:30;23.00;56.50
8172;DHT22;4127;47.908;10.850;2022-07-06T10:31:57;22.90;57.70
8172;DHT22;4127;47.908;10.850;2022-07-06T10:34:25;23.00;58.70
8172;DHT22;4127;47.908;10.850;2022-07-06T10:36:53;23.00;56.70
8172;DHT22;4127;47.908;10.850;2022-07-06T10:39:37;22.80;56.80
8172;DHT22;4127;47.908;10.850;2022-07-06T10:42:46;22.80;56.90
8172;DHT22;4127;47.908;10.850;2022-07-06T10:50:51;23.10;58.00
8172;DHT22;4127;47.908;10.850;2022-07-06T10:53:25;23.10;58.00
8172;DHT22;4127;47.908;10.850;2022-07-06T10:55:54;23.20;58.50
8172;DHT22;4127;47.908;10.850;2022-07-06T10:58:46;23.30;58.10
8172;DHT22;4127;47.908;10.850;2022-07-06T11:01:14;23.30;58.00
8172;DHT22;4127;47.908;10.850;2022-07-06T11:03:47;23.40;57.80
8172;DHT22;4127;47.908;10.850;2022-07-06T11:06:21;23.40;57.40
8172;DHT22;4127;47.908;10.850;2022-07-06T11:11:38;23.50;57.80
8172;DHT22;4127;47.908;10.850;2022-07-06T11:14:12;23.50;57.50
8172;DHT22;4127;47.908;10.850;2022-07-06T11:19:17;23.50;57.50
8172;DHT22;4127;47.908;10.850;2022-07-06T11:21:52;23.50;57.50
8172;DHT22;4127;47.908;10.850;2022-07-06T11:24:21;23.60;57.20
8172;DHT22;4127;47.908;10.850;2022-07-06T11:26:50;23.60;57.50
8172;DHT22;4127;47.908;10.850;2022-07-06T11:29:19;23.60;57.40
8172;DHT22;4127;47.908;10.850;2022-07-06T11:31:49;23.60;56.70
8172;DHT22;4127;47.908;10.850;2022-07-06T11:34:22;23.60;56.70
8172;DHT22;4127;47.908;10.850;2022-07-06T11:36:54;23.60;57.10
8172;DHT22;4127;47.908;10.850;2022-07-06T11:39:22;23.60;57.20
8172;DHT22;4127;47.908;10.850;2022-07-06T11:41:48;23.60;56.00
8172;DHT22;4127;47.908;10.850;2022-07-06T11:44:17;23.60;55.80
8172;DHT22;4127;47.908;10.850;2022-07-06T11:46:45;23.60;56.70
8172;DHT22;4127;47.908;10.850;2022-07-06T11:49:11;23.70;56.80
8172;DHT22;4127;47.908;10.850;2022-07-06T11:51:40;23.70;57.00
8172;DHT22;4127;47.908;10.850;2022-07-06T11:54:12;23.70;56.80
8172;DHT22;4127;47.908;10.850;2022-07-06T11:56:54;23.70;56.80
8172;DHT22;4127;47.908;10.850;2022-07-06T11:59:23;23.70;56.70
8172;DHT22;4127;47.908;10.850;2022-07-06T12:01:57;23.80;56.50
8172;DHT22;4127;47.908;10.850;2022-07-06T12:04:25;23.80;56.70
8172;DHT22;4127;47.908;10.850;2022-07-06T12:06:52;23.80;56.50
8172;DHT22;4127;47.908;10.850;2022-07-06T12:09:19;23.80;56.10
8172;DHT22;4127;47.908;10.850;2022-07-06T12:11:47;23.80;56.20
8172;DHT22;4127;47.908;10.850;2022-07-06T12:14:18;23.80;56.60
8172;DHT22;4127;47.908;10.850;2022-07-06T12:16:47;23.80;56.60
8172;DHT22;4127;47.908;10.850;2022-07-06T12:19:15;23.80;56.30
8172;DHT22;4127;47.908;10.850;2022-07-06T12:21:50;23.90;56.60
8172;DHT22;4127;47.908;10.850;2022-07-06T12:24:25;23.90;56.10
8172;DHT22;4127;47.908;10.850;2022-07-06T12:26:54;23.80;55.60
8172;DHT22;4127;47.908;10.850;2022-07-06T12:29:21;23.80;56.10
8172;DHT22;4127;47.908;10.850;2022-07-06T12:31:54;23.90;56.10
8172;DHT22;4127;47.908;10.850;2022-07-06T12:34:23;23.90;56.00
8172;DHT22;4127;47.908;10.850;2022-07-06T12:36:51;23.90;56.00
8172;DHT22;4127;47.908;10.850;2022-07-06T12:39:20;23.90;55.80
8172;DHT22;4127;47.908;10.850;2022-07-06T12:41:49;24.00;56.00
8172;DHT22;4127;47.908;10.850;2022-07-06T12:44:21;24.00;55.70
8172;DHT22;4127;47.908;10.850;2022-07-06T12:46:50;24.00;54.70
8172;DHT22;4127;47.908;10.850;2022-07-06T12:49:21;24.00;55.40
8172;DHT22;4127;47.908;10.850;2022-07-06T12:51:57;24.00;55.40
8172;DHT22;4127;47.908;10.850;2022-07-06T12:54:30;23.90;53.80
8172;DHT22;4127;47.908;10.850;2022-07-06T12:57:17;23.90;54.60
8172;DHT22;4127;47.908;10.850;2022-07-06T13:02:37;23.90;51.70
8172;DHT22;4127;47.908;10.850;2022-07-06T13:05:26;23.70;51.40
8172;DHT22;4127;47.908;10.850;2022-07-06T13:07:57;23.60;53.50
8172;DHT22;4127;47.908;10.850;2022-07-06T13:10:25;23.70;54.60
8172;DHT22;4127;47.908;10.850;2022-07-06T13:12:51;23.70;54.80
8172;DHT22;4127;47.908;10.850;2022-07-06T13:15:18;23.80;54.90
8172;DHT22;4127;47.908;10.850;2022-07-06T13:17:45;23.90;55.20
8172;DHT22;4127;47.908;10.850;2022-07-06T13:20:13;23.90;54.60
8172;DHT22;4127;47.908;10.850;2022-07-06T13:22:40;24.00;54.70
8172;DHT22;4127;47.908;10.850;2022-07-06T13:25:08;24.00;54.90
8172;DHT22;4127;47.908;10.850;2022-07-06T13:27:35;24.00;53.60
8172;DHT22;4127;47.908;10.850;2022-07-06T13:30:02;24.00;54.50
8172;DHT22;4127;47.908;10.850;2022-07-06T13:32:29;24.00;54.00
8172;DHT22;4127;47.908;10.850;2022-07-06T13:34:56;24.00;54.70
8172;DHT22;4127;47.908;10.850;2022-07-06T13:37:23;24.00;53.80
8172;DHT22;4127;47.908;10.850;2022-07-06T13:39:50;24.00;53.30
8172;DHT22;4127;47.908;10.850;2022-07-06T13:42:17;24.00;53.60
8172;DHT22;4127;47.908;10.850;2022-07-06T13:44:43;24.10;54.00
8172;DHT22;4127;47.908;10.850;2022-07-06T13:47:10;24.00;53.80
8172;DHT22;4127;47.908;10.850;2022-07-06T13:49:37;24.10;54.30
8172;DHT22;4127;47.908;10.850;2022-07-06T13:52:04;24.10;54.30
8172;DHT22;4127;47.908;10.850;2022-07-06T13:54:32;24.20;53.20
8172;DHT22;4127;47.908;10.850;2022-07-06T13:57:02;24.20;53.80
8172;DHT22;4127;47.908;10.850;2022-07-06T13:59:29;24.20;54.10
8172;DHT22;4127;47.908;10.850;2022-07-06T14:01:56;24.20;54.00
8172;DHT22;4127;47.908;10.850;2022-07-06T14:04:23;24.30;53.40
8172;DHT22;4127;47.908;10.850;2022-07-06T14:06:50;24.30;52.70
8172;DHT22;4127;47.908;10.850;2022-07-06T14:09:17;24.30;52.00
8172;DHT22;4127;47.908;10.850;2022-07-06T14:11:44;24.40;51.80
8172;DHT22;4127;47.908;10.850;2022-07-06T14:14:11;24.40;52.80
8172;DHT22;4127;47.908;10.850;2022-07-06T14:16:38;24.40;53.00
8172;DHT22;4127;47.908;10.850;2022-07-06T14:19:07;24.50;52.70
8172;DHT22;4127;47.908;10.850;2022-07-06T14:21:34;24.50;53.20
8172;DHT22;4127;47.908;10.850;2022-07-06T14:24:01;24.60;53.80
8172;DHT22;4127;47.908;10.850;2022-07-06T14:26:28;24.60;53.10
8172;DHT22;4127;47.908;10.850;2022-07-06T14:31:29;24.80;53.20
8172;DHT22;4127;47.908;10.850;2022-07-06T14:33:56;24.80;52.20
8172;DHT22;4127;47.908;10.850;2022-07-06T14:36:23;24.90;53.40
8172;DHT22;4127;47.908;10.850;2022-07-06T14:38:49;25.00;52.00
8172;DHT22;4127;47.908;10.850;2022-07-06T14:41:16;25.00;52.00
8172;DHT22;4127;47.908;10.850;2022-07-06T14:43:43;25.10;50.20
8172;DHT22;4127;47.908;10.850;2022-07-06T14:46:10;25.10;52.60
8172;DHT22;4127;47.908;10.850;2022-07-06T14:48:36;25.20;53.10
8172;DHT22;4127;47.908;10.850;2022-07-06T14:51:03;25.20;53.10
8172;DHT22;4127;47.908;10.850;2022-07-06T14:53:30;25.30;53.30
8172;DHT22;4127;47.908;10.850;2022-07-06T14:55:57;25.30;53.30
8172;DHT22;4127;47.908;10.850;2022-07-06T14:58:24;25.40;53.50
8172;DHT22;4127;47.908;10.850;2022-07-06T15:00:51;25.40;53.60
8172;DHT22;4127;47.908;10.850;2022-07-06T15:03:25;25.50;53.70
8172;DHT22;4127;47.908;10.850;2022-07-06T15:05:53;25.60;53.60
8172;DHT22;4127;47.908;10.850;2022-07-06T15:08:20;25.60;54.10
8172;DHT22;4127;47.908;10.850;2022-07-06T15:10:47;25.70;53.70
8172;DHT22;4127;47.908;10.850;2022-07-06T15:13:15;25.70;53.60
8172;DHT22;4127;47.908;10.850;2022-07-06T15:15:42;25.70;53.50
8172;DHT22;4127;47.908;10.850;2022-07-06T15:18:22;25.70;53.60
8172;DHT22;4127;47.908;10.850;2022-07-06T15:20:49;25.70;53.70
8172;DHT22;4127;47.908;10.850;2022-07-06T15:23:16;25.80;53.70
8172;DHT22;4127;47.908;10.850;2022-07-06T15:25:43;25.80;53.70
8172;DHT22;4127;47.908;10.850;2022-07-06T15:28:10;25.80;53.70
8172;DHT22;4127;47.908;10.850;2022-07-06T15:30:36;25.80;53.60
8172;DHT22;4127;47.908;10.850;2022-07-06T15:33:04;25.80;53.60
8172;DHT22;4127;47.908;10.850;2022-07-06T15:35:33;25.90;53.50
8172;DHT22;4127;47.908;10.850;2022-07-06T15:38:00;25.90;53.40
8172;DHT22;4127;47.908;10.850;2022-07-06T15:40:27;25.90;53.30
8172;DHT22;4127;47.908;10.850;2022-07-06T15:42:56;26.00;53.40
8172;DHT22;4127;47.908;10.850;2022-07-06T15:45:23;26.00;53.40
8172;DHT22;4127;47.908;10.850;2022-07-06T15:47:52;26.00;53.40
8172;DHT22;4127;47.908;10.850;2022-07-06T15:50:19;26.00;53.40
8172;DHT22;4127;47.908;10.850;2022-07-06T15:52:47;26.00;53.50
8172;DHT22;4127;47.908;10.850;2022-07-06T15:55:14;26.00;53.40
8172;DHT22;4127;47.908;10.850;2022-07-06T15:57:41;26.10;53.40
8172;DHT22;4127;47.908;10.850;2022-07-06T16:00:08;26.10;53.40
8172;DHT22;4127;47.908;10.850;2022-07-06T16:02:35;26.10;53.40
8172;DHT22;4127;47.908;10.850;2022-07-06T16:05:02;26.10;53.50
8172;DHT22;4127;47.908;10.850;2022-07-06T16:07:29;26.20;53.50
8172;DHT22;4127;47.908;10.850;2022-07-06T16:10:16;26.10;53.50
8172;DHT22;4127;47.908;10.850;2022-07-06T16:12:43;26.20;53.60